createdAt,value
2017-01-26T00:00:04.730Z,17.71
2017-01-26T00:01:04.709Z,16.1
2017-01-26T00:02:04.709Z,14.57
2017-01-26T00:03:04.710Z,14.03
2017-01-26T00:04:04.752Z,13.26
2017-01-26T00:05:04.724Z,13.59
2017-01-26T00:06:04.733Z,14.02
2017-01-26T00:07:04.715Z,14.25
2017-01-26T00:08:04.727Z,14.51
2017-01-26T00:09:04.721Z,15.3
2017-01-26T00:10:04.714Z,15.76
2017-01-26T00:11:04.722Z,16.02
2017-01-26T00:12:04.726Z,17.36
2017-01-26T00:13:04.751Z,17.92
2017-01-26T00:14:04.711Z,19.63
2017-01-26T00:15:04.975Z,20.18
2017-01-26T00:16:04.722Z,21.94
2017-01-26T00:17:04.731Z,20.56
2017-01-26T00:18:04.727Z,20.81
2017-01-26T00:19:04.838Z,21.37
2017-01-26T00:20:04.727Z,22.64
2017-01-26T00:21:04.724Z,22.88
2017-01-26T00:22:04.722Z,23.64
2017-01-26T00:23:04.723Z,23.89
2017-01-26T00:24:04.943Z,24.08
2017-01-26T00:25:04.728Z,25.42
2017-01-26T00:26:04.715Z,25.44
2017-01-26T00:27:04.726Z,23.61
2017-01-26T00:28:04.719Z,24.1
2017-01-26T00:29:04.720Z,24.05
2017-01-26T00:30:04.734Z,23.01
2017-01-26T00:37:33.164Z,23.24
2017-01-26T00:37:43.178Z,20.81
2017-01-26T00:38:43.192Z,20.66
2017-01-26T00:39:43.189Z,20.34
2017-01-26T00:40:43.191Z,19.82
2017-01-26T00:41:43.206Z,18.78
2017-01-26T00:42:43.192Z,19.79
2017-01-26T00:43:43.187Z,19.29
2017-01-26T00:44:43.182Z,17.1
2017-01-26T00:45:43.270Z,16.58
2017-01-26T00:46:43.181Z,16.27
2017-01-26T00:47:43.183Z,16.28
2017-01-26T00:48:43.181Z,15.8
2017-01-26T00:49:43.185Z,14.45
2017-01-26T00:50:43.184Z,14.17
2017-01-26T00:51:43.186Z,13.3
2017-01-26T00:52:43.193Z,12.52
2017-01-26T00:53:43.200Z,12.48
2017-01-26T00:54:43.188Z,12.24
2017-01-26T00:55:43.191Z,12.24
2017-01-26T00:56:43.197Z,10.38
2017-01-26T00:57:43.199Z,8.82
2017-01-26T00:58:43.196Z,7.27
2017-01-26T00:59:43.207Z,6.74
2017-01-26T01:00:43.196Z,4.95
2017-01-26T01:01:43.195Z,3.69
2017-01-26T01:02:43.200Z,2.09
2017-01-26T01:03:43.458Z,0.52
2017-01-26T01:04:43.196Z,0.25
2017-01-26T01:05:43.202Z,-0.5
2017-01-26T01:06:43.194Z,-2.33
2017-01-26T01:07:43.208Z,-3.71
2017-01-26T01:08:43.197Z,-4.42
2017-01-26T01:09:43.198Z,-5.23
2017-01-26T01:10:43.206Z,-7.82
2017-01-26T01:11:43.200Z,-7.83
2017-01-26T01:12:43.196Z,-9.73
2017-01-26T01:13:43.211Z,-9.77
2017-01-26T01:14:43.203Z,-10.33
2017-01-26T01:15:43.208Z,-13.33
2017-01-26T01:16:43.198Z,-14.87
2017-01-26T01:17:43.193Z,-15.68
2017-01-26T01:18:43.199Z,-17.59
2017-01-26T01:19:43.206Z,-18.6
2017-01-26T01:20:43.197Z,-20.2
2017-01-26T01:21:43.215Z,-22.25
2017-01-26T01:22:43.206Z,-25.52
2017-01-26T01:23:43.210Z,-26.52
2017-01-26T01:24:43.211Z,-27.78
2017-01-26T01:25:43.206Z,-29.89
2017-01-26T01:26:43.202Z,-30.91
2017-01-26T01:27:43.339Z,-32.74
2017-01-26T01:28:43.224Z,-34
2017-01-26T01:29:43.214Z,-35.1
2017-01-26T01:30:43.216Z,-35.89
2017-01-26T01:31:43.264Z,-36.95
2017-01-26T01:32:43.213Z,-38.05
2017-01-26T01:33:43.215Z,-39.58
2017-01-26T01:34:43.371Z,-40.42
2017-01-26T01:35:43.213Z,-40.72
2017-01-26T01:36:43.225Z,-41.24
2017-01-26T01:37:43.217Z,-42.33
2017-01-26T01:38:43.219Z,-43.85
2017-01-26T01:39:43.247Z,-44.18
2017-01-26T01:40:43.216Z,-44.97
2017-01-26T01:41:43.220Z,-46.84
2017-01-26T01:42:43.568Z,-47.7
2017-01-26T01:43:43.225Z,-48.76
2017-01-26T01:44:43.222Z,-49.59
2017-01-26T01:45:43.223Z,-50.7
2017-01-26T01:46:43.231Z,-51.46
2017-01-26T01:47:43.876Z,-52.51
2017-01-26T01:48:43.232Z,-53.58
2017-01-26T01:49:43.223Z,-55.46
2017-01-26T01:50:43.231Z,-56.26
2017-01-26T01:51:43.238Z,-57.55
2017-01-26T01:52:43.336Z,-59.21
2017-01-26T01:53:43.225Z,-59.14
2017-01-26T01:54:43.228Z,-61.32
2017-01-26T01:55:43.214Z,-62.63
2017-01-26T01:56:43.232Z,-63.74
2017-01-26T01:57:43.220Z,-64.26
2017-01-26T01:58:43.242Z,-65.34
2017-01-26T01:59:43.243Z,-66.69
2017-01-26T02:00:43.231Z,-67.99
2017-01-26T02:01:43.228Z,-69.11
2017-01-26T02:02:43.230Z,-70.79
2017-01-26T02:03:43.227Z,-70.01
2017-01-26T02:04:43.229Z,-71.66
2017-01-26T02:05:43.472Z,-72.16
2017-01-26T02:06:43.234Z,-71.86
2017-01-26T02:07:43.237Z,-72.44
2017-01-26T02:08:43.231Z,-73.47
2017-01-26T02:09:43.246Z,-74.04
2017-01-26T02:10:43.244Z,-76.51
2017-01-26T02:11:43.243Z,-77.32
2017-01-26T02:12:43.249Z,-77.07
2017-01-26T02:13:43.237Z,-78.43
2017-01-26T02:14:43.242Z,-80.08
2017-01-26T02:15:43.239Z,-79.55
2017-01-26T02:16:43.228Z,-80.65
2017-01-26T02:17:43.234Z,-81.2
2017-01-26T02:18:43.233Z,-83.11
2017-01-26T02:19:43.235Z,-83.12
2017-01-26T02:20:43.252Z,-82.84
2017-01-26T02:21:43.244Z,-83.4
2017-01-26T02:22:43.253Z,-83.72
2017-01-26T02:23:43.239Z,-83.98
2017-01-26T02:24:43.252Z,-84.01
2017-01-26T02:25:43.447Z,-83.75
2017-01-26T02:26:43.236Z,-83.25
2017-01-26T02:27:43.248Z,-83.21
2017-01-26T02:28:43.285Z,-83.45
2017-01-26T02:29:43.255Z,-84.04
2017-01-26T02:30:43.245Z,-84.37
2017-01-26T02:31:43.247Z,-85.16
2017-01-26T02:32:43.244Z,-84.3
2017-01-26T02:33:43.252Z,-85.9
2017-01-26T02:34:43.421Z,-86.51
2017-01-26T02:35:43.246Z,-87.55
2017-01-26T02:36:43.238Z,-87.81
2017-01-26T02:37:43.244Z,-88.93
2017-01-26T02:38:43.251Z,-87.53
2017-01-26T02:39:43.252Z,-88.82
2017-01-26T02:40:43.263Z,-89.59
2017-01-26T02:41:43.256Z,-90.76
2017-01-26T02:42:43.256Z,-91.06
2017-01-26T02:43:43.247Z,-91.56
2017-01-26T02:44:43.246Z,-93.47
2017-01-26T02:45:43.243Z,-93.19
2017-01-26T02:46:43.262Z,-94.56
2017-01-26T02:47:43.416Z,-94.8
2017-01-26T02:48:43.253Z,-97.01
2017-01-26T02:49:43.266Z,-97.81
2017-01-26T02:50:43.263Z,-97.26
2017-01-26T02:51:43.250Z,-99.41
2017-01-26T02:52:43.263Z,-99.42
2017-01-26T02:53:43.261Z,-99.66
2017-01-26T02:54:43.257Z,-99.67
2017-01-26T02:55:43.261Z,-99.96
2017-01-26T02:56:43.254Z,-100.48
2017-01-26T02:57:43.390Z,-103.51
2017-01-26T02:58:43.267Z,-103.49
2017-01-26T02:59:43.271Z,-103.46
2017-01-26T03:00:43.259Z,-104.18
2017-01-26T03:01:43.638Z,-105.05
2017-01-26T03:02:43.277Z,-105.89
2017-01-26T03:03:43.263Z,-107.28
2017-01-26T03:04:44.343Z,-107.31
2017-01-26T03:05:43.265Z,-108.61
2017-01-26T03:06:43.265Z,-109.14
2017-01-26T03:07:43.280Z,-109.1
2017-01-26T03:08:43.263Z,-110.75
2017-01-26T03:09:43.260Z,-111.87
2017-01-26T03:10:43.305Z,-111.87
2017-01-26T03:11:43.266Z,-112.95
2017-01-26T03:12:43.267Z,-113.25
2017-01-26T03:13:43.268Z,-113.27
2017-01-26T03:14:43.261Z,-113.85
2017-01-26T03:15:43.293Z,-114.64
2017-01-26T03:16:43.271Z,-115.48
2017-01-26T03:17:43.267Z,-116.85
2017-01-26T03:18:43.269Z,-117.43
2017-01-26T03:19:43.290Z,-117.46
2017-01-26T03:20:43.297Z,-118.22
2017-01-26T03:21:43.271Z,-119.37
2017-01-26T03:22:43.278Z,-120.45
2017-01-26T03:23:43.270Z,-121.61
2017-01-26T03:24:43.296Z,-122.39
2017-01-26T03:25:43.322Z,-123.47
2017-01-26T03:26:43.266Z,-124.04
2017-01-26T03:27:43.283Z,-123.4
2017-01-26T03:28:43.282Z,-125.34
2017-01-26T03:29:43.272Z,-124.72
2017-01-26T03:30:43.271Z,-125.84
2017-01-26T03:31:43.273Z,-127.53
2017-01-26T03:32:43.284Z,-127.24
2017-01-26T03:33:43.286Z,-128.67
2017-01-26T03:34:43.276Z,-127.53
2017-01-26T03:35:43.280Z,-127.82
2017-01-26T03:36:43.296Z,-128.68
2017-01-26T03:37:43.280Z,-127.88
2017-01-26T03:38:43.273Z,-127.1
2017-01-26T03:39:43.277Z,-125.17
2017-01-26T03:40:43.274Z,-123.89
2017-01-26T03:41:43.275Z,-123.01
2017-01-26T03:42:43.285Z,-121.96
2017-01-26T03:43:43.276Z,-120.6
2017-01-26T03:44:43.298Z,-120.66
2017-01-26T03:45:43.292Z,-120.36
2017-01-26T03:46:43.284Z,-118.74
2017-01-26T03:47:43.302Z,-118.75
2017-01-26T03:48:43.288Z,-118.72
2017-01-26T03:49:43.290Z,-117.86
2017-01-26T03:50:43.289Z,-118.44
2017-01-26T03:51:43.289Z,-118.48
2017-01-26T03:52:43.280Z,-118.47
2017-01-26T03:53:43.290Z,-117.17
2017-01-26T03:54:43.288Z,-116.89
2017-01-26T03:55:43.300Z,-117.24
2017-01-26T03:56:43.298Z,-115.63
2017-01-26T03:57:43.292Z,-115.71
2017-01-26T03:58:43.293Z,-113.82
2017-01-26T03:59:43.287Z,-110.55
2017-01-26T04:00:43.290Z,-107.65
2017-01-26T04:01:43.292Z,-104.94
2017-01-26T04:02:43.283Z,-102.8
2017-01-26T04:03:43.295Z,-100.64
2017-01-26T04:04:43.298Z,-97.15
2017-01-26T04:05:43.318Z,-94.71
2017-01-26T04:06:43.304Z,-92.93
2017-01-26T04:07:43.324Z,-92.11
2017-01-26T04:08:43.292Z,-95.15
2017-01-26T04:09:43.293Z,-90.46
2017-01-26T04:10:43.302Z,-89.19
2017-01-26T04:11:43.311Z,-88.07
2017-01-26T04:12:43.295Z,-87.57
2017-01-26T04:13:43.289Z,-87.85
2017-01-26T04:14:43.306Z,-85.44
2017-01-26T04:15:43.312Z,-85.76
2017-01-26T04:16:43.325Z,-86.12
2017-01-26T04:17:43.310Z,-84.23
2017-01-26T04:18:43.322Z,-85.01
2017-01-26T04:19:43.339Z,-85
2017-01-26T04:20:43.325Z,-84.46
2017-01-26T04:21:43.318Z,-84.16
2017-01-26T04:22:43.317Z,-84.49
2017-01-26T04:23:43.302Z,-84.21
2017-01-26T04:24:43.301Z,-84.72
2017-01-26T04:25:43.308Z,-84.7
2017-01-26T04:26:43.307Z,-83.32
2017-01-26T04:27:43.308Z,-84.74
2017-01-26T04:28:43.307Z,-83.62
2017-01-26T04:29:43.298Z,-84.17
2017-01-26T04:30:43.305Z,-85.31
2017-01-26T04:31:43.304Z,-84.28
2017-01-26T04:32:43.314Z,-85.64
2017-01-26T04:33:43.307Z,-84.33
2017-01-26T04:34:43.300Z,-85.05
2017-01-26T04:35:43.301Z,-84.85
2017-01-26T04:36:43.322Z,-84.62
2017-01-26T04:37:43.317Z,-84.07
2017-01-26T04:38:43.322Z,-84.08
2017-01-26T04:39:43.306Z,-84.87
2017-01-26T04:40:43.308Z,-84.88
2017-01-26T04:41:43.314Z,-85.08
2017-01-26T04:42:43.306Z,-85.89
2017-01-26T04:43:43.317Z,-86.2
2017-01-26T04:44:43.308Z,-84.64
2017-01-26T04:45:43.316Z,-84.61
2017-01-26T04:46:43.320Z,-84.9
2017-01-26T04:47:43.321Z,-84.04
2017-01-26T04:48:43.320Z,-83.86
2017-01-26T04:49:43.317Z,-83.02
2017-01-26T04:50:43.307Z,-82.23
2017-01-26T04:51:43.321Z,-82.28
2017-01-26T04:52:43.316Z,-81.55
2017-01-26T04:53:43.322Z,-82.39
2017-01-26T04:54:43.313Z,-81.58
2017-01-26T04:55:43.328Z,-82.12
2017-01-26T04:56:43.328Z,-82.7
2017-01-26T04:57:43.305Z,-82.73
2017-01-26T04:58:43.328Z,-84.11
2017-01-26T04:59:43.319Z,-82.99
2017-01-26T05:00:43.331Z,-81.97
2017-01-26T05:01:43.319Z,-82.05
2017-01-26T05:02:43.323Z,-81.68
2017-01-26T05:03:43.315Z,-81.41
2017-01-26T05:04:43.314Z,-81.98
2017-01-26T05:05:43.328Z,-82.86
2017-01-26T05:06:43.330Z,-84
2017-01-26T05:07:43.333Z,-84.49
2017-01-26T05:08:43.333Z,-82.88
2017-01-26T05:09:43.325Z,-83.72
2017-01-26T05:10:43.323Z,-82.39
2017-01-26T05:11:43.337Z,-84.26
2017-01-26T05:12:43.330Z,-82.65
2017-01-26T05:13:43.325Z,-83.58
2017-01-26T05:14:43.327Z,-84.97
2017-01-26T05:15:43.344Z,-84.72
2017-01-26T05:16:43.327Z,-84.64
2017-01-26T05:17:43.333Z,-85.5
2017-01-26T05:18:43.333Z,-86.29
2017-01-26T05:19:43.338Z,-86.01
2017-01-26T05:20:43.333Z,-86.59
2017-01-26T05:21:43.340Z,-87.16
2017-01-26T05:22:43.338Z,-86.57
2017-01-26T05:23:43.336Z,-87.38
2017-01-26T05:24:43.343Z,-88.21
2017-01-26T05:25:43.334Z,-89.35
2017-01-26T05:26:43.336Z,-89.94
2017-01-26T05:27:43.333Z,-90.71
2017-01-26T05:28:43.338Z,-90.99
2017-01-26T05:29:43.334Z,-91.79
2017-01-26T05:30:43.337Z,-92.34
2017-01-26T05:31:43.332Z,-98.41
2017-01-26T05:32:43.411Z,-92.64
2017-01-26T05:33:43.347Z,-93.48
2017-01-26T05:34:43.350Z,-92.93
2017-01-26T05:35:43.348Z,-95.06
2017-01-26T05:36:43.346Z,-94.03
2017-01-26T05:37:43.362Z,-94.62
2017-01-26T05:38:43.338Z,-94.86
2017-01-26T05:39:43.341Z,-93.78
2017-01-26T05:40:43.333Z,-94.08
2017-01-26T05:41:43.348Z,-94.35
2017-01-26T05:42:43.349Z,-94.99
2017-01-26T05:43:43.345Z,-94.7
2017-01-26T05:44:43.345Z,-94.45
2017-01-26T05:45:43.351Z,-96.35
2017-01-26T05:46:43.345Z,-96.85
2017-01-26T05:47:43.356Z,-99.02
2017-01-26T05:48:43.357Z,-100.94
2017-01-26T05:49:43.357Z,-102.01
2017-01-26T05:50:43.356Z,-103.34
2017-01-26T05:51:43.353Z,-104.97
2017-01-26T05:52:43.360Z,-106.64
2017-01-26T05:53:43.363Z,-108.21
2017-01-26T05:54:43.345Z,-110.44
2017-01-26T05:55:43.352Z,-111.25
2017-01-26T05:56:43.363Z,-112.89
2017-01-26T05:57:43.359Z,-116.2
2017-01-26T05:58:43.370Z,-116.33
2017-01-26T05:59:43.363Z,-118.24
2017-01-26T06:00:43.359Z,-118.81
2017-01-26T06:01:43.352Z,-121.19
2017-01-26T06:02:43.358Z,-122.52
2017-01-26T06:03:43.359Z,-123.42
2017-01-26T06:04:43.347Z,-124.99
2017-01-26T06:05:43.363Z,-127.46
2017-01-26T06:06:43.364Z,-128.26
2017-01-26T06:07:43.357Z,-130.18
2017-01-26T06:08:43.359Z,-131.87
2017-01-26T06:09:43.364Z,-132.97
2017-01-26T06:10:43.391Z,-134.49
2017-01-26T06:11:43.371Z,-136.14
2017-01-26T06:12:43.360Z,-138.86
2017-01-26T06:13:43.360Z,-139.72
2017-01-26T06:14:43.383Z,-141.07
2017-01-26T06:15:43.374Z,-144.08
2017-01-26T06:16:43.380Z,-144.8
2017-01-26T06:17:43.367Z,-145.98
2017-01-26T06:18:43.372Z,-148.43
2017-01-26T06:19:43.363Z,-149.49
2017-01-26T06:20:43.362Z,-150.33
2017-01-26T06:26:00.213Z,-150.63
2017-01-26T06:26:10.222Z,-150.84
2017-01-26T06:27:10.236Z,-150.56
2017-01-26T06:28:10.271Z,-151.1
2017-01-26T06:29:10.237Z,-152.43
2017-01-26T06:30:10.236Z,-152.45
2017-01-26T06:31:10.236Z,-152.72
2017-01-26T06:32:10.242Z,-152.68
2017-01-26T06:33:10.251Z,-153.56
2017-01-26T06:34:10.256Z,-153.81
2017-01-26T06:35:10.248Z,-153.6
2017-01-26T06:36:10.243Z,-153.01
2017-01-26T06:37:10.235Z,-154.16
2017-01-26T06:38:10.247Z,-153.84
2017-01-26T06:39:10.254Z,-152.79
2017-01-26T06:40:10.254Z,-152.5
2017-01-26T06:41:10.232Z,-153.89
2017-01-26T06:42:10.239Z,-156.12
2017-01-26T06:43:10.248Z,-155.51
2017-01-26T06:44:10.240Z,-155.23
2017-01-26T06:45:10.274Z,-154.38
2017-01-26T06:46:10.238Z,-156.22
2017-01-26T06:47:10.251Z,-157.05
2017-01-26T06:48:10.268Z,-156.24
2017-01-26T06:49:10.308Z,-157.3
2017-01-26T06:50:10.255Z,-157.33
2017-01-26T06:51:10.244Z,-158.68
2017-01-26T06:52:10.281Z,-159.24
2017-01-26T06:53:10.246Z,-159.6
2017-01-26T06:54:10.263Z,-160.68
2017-01-26T06:55:10.245Z,-160.64
2017-01-26T06:56:10.252Z,-161.49
2017-01-26T06:57:10.258Z,-160.56
2017-01-26T06:58:10.250Z,-161.75
2017-01-26T06:59:10.411Z,-161.78
2017-01-26T07:00:10.267Z,-161.77
2017-01-26T07:01:10.259Z,-161.17
2017-01-26T07:02:10.256Z,-160.94
2017-01-26T07:03:10.257Z,-159.79
2017-01-26T07:04:10.255Z,-159.54
2017-01-26T07:05:10.267Z,-158.66
2017-01-26T07:06:10.261Z,-157.55
2017-01-26T07:07:10.260Z,-156.74
2017-01-26T07:08:10.255Z,-156.18
2017-01-26T07:09:10.256Z,-155.31
2017-01-26T07:10:10.268Z,-154.23
2017-01-26T07:11:10.263Z,-152.22
2017-01-26T07:12:10.270Z,-152.49
2017-01-26T07:13:10.266Z,-150.87
2017-01-26T07:14:10.286Z,-150.61
2017-01-26T07:15:10.279Z,-150.87
2017-01-26T07:16:10.268Z,-150.08
2017-01-26T07:17:10.267Z,-150.62
2017-01-26T07:18:10.264Z,-148.73
2017-01-26T07:19:10.267Z,-149.84
2017-01-26T07:20:10.265Z,-148.74
2017-01-26T07:21:10.284Z,-147.86
2017-01-26T07:22:10.274Z,-148.43
2017-01-26T07:23:10.272Z,-148.73
2017-01-26T07:24:10.260Z,-147.9
2017-01-26T07:25:10.273Z,-147.38
2017-01-26T07:26:10.270Z,-146.25
2017-01-26T07:27:10.276Z,-145.5
2017-01-26T07:28:10.267Z,-143.51
2017-01-26T07:29:10.277Z,-144
2017-01-26T07:30:10.276Z,-143.4
2017-01-26T07:31:10.268Z,-143.97
2017-01-26T07:32:10.267Z,-143.09
2017-01-26T07:33:10.269Z,-142.56
2017-01-26T07:34:10.268Z,-140.88
2017-01-26T07:35:10.274Z,-139.22
2017-01-26T07:36:10.271Z,-138.71
2017-01-26T07:37:10.313Z,-137.35
2017-01-26T07:38:10.311Z,-136.31
2017-01-26T07:39:10.295Z,-135.51
2017-01-26T07:40:10.278Z,-133.63
2017-01-26T07:41:10.280Z,-131.96
2017-01-26T07:42:10.297Z,-130.06
2017-01-26T07:43:10.283Z,-128.67
2017-01-26T07:44:10.277Z,-127.02
2017-01-26T07:45:10.289Z,-125.1
2017-01-26T07:46:10.281Z,-122.66
2017-01-26T07:47:10.275Z,-120.21
2017-01-26T07:48:10.291Z,-119.68
2017-01-26T07:49:10.297Z,-116.97
2017-01-26T07:50:10.281Z,-115.3
2017-01-26T07:51:10.300Z,-113.38
2017-01-26T07:52:10.291Z,-111.77
2017-01-26T07:53:10.286Z,-110.06
2017-01-26T07:54:10.302Z,-107.63
2017-01-26T07:55:10.280Z,-105.26
2017-01-26T07:56:10.303Z,-102.52
2017-01-26T07:57:10.309Z,-98.25
2017-01-26T07:58:10.284Z,-96.17
2017-01-26T07:59:10.278Z,-92.62
2017-01-26T08:00:10.288Z,-90.17
2017-01-26T08:01:10.291Z,-87.02
2017-01-26T08:02:10.285Z,-83.74
2017-01-26T08:03:10.280Z,-80.18
2017-01-26T08:04:10.298Z,-76.58
2017-01-26T08:05:10.285Z,-73.88
2017-01-26T08:06:10.311Z,-72.07
2017-01-26T08:07:10.294Z,-68.91
2017-01-26T08:08:10.285Z,-66.28
2017-01-26T08:09:10.298Z,-62.86
2017-01-26T08:10:10.397Z,-59.87
2017-01-26T08:11:10.290Z,-57.26
2017-01-26T08:12:10.293Z,-53.54
2017-01-26T08:13:10.288Z,-50.67
2017-01-26T08:14:10.295Z,-47.24
2017-01-26T08:15:10.285Z,-44.64
2017-01-26T08:16:12.824Z,-40.1
2017-01-26T08:17:10.376Z,-37.99
2017-01-26T08:18:10.299Z,-34.85
2017-01-26T08:19:10.354Z,-30.65
2017-01-26T08:20:10.543Z,-27.73
2017-01-26T08:21:10.317Z,-25.91
2017-01-26T08:22:10.435Z,-21.94
2017-01-26T08:23:10.377Z,-18.79
2017-01-26T08:24:10.579Z,-16.46
2017-01-26T08:25:10.310Z,-11.74
2017-01-26T08:26:10.319Z,-10.74
2017-01-26T08:27:10.302Z,-8.16
2017-01-26T08:28:10.303Z,-5.53
2017-01-26T08:29:10.313Z,-2.34
2017-01-26T08:30:10.355Z,0.04
2017-01-26T08:31:10.293Z,2.66
2017-01-26T08:32:10.303Z,4.42
2017-01-26T08:33:10.328Z,6.53
2017-01-26T08:34:10.329Z,9.97
2017-01-26T08:35:10.355Z,13.03
2017-01-26T08:36:10.351Z,16.63
2017-01-26T08:37:10.305Z,20.53
2017-01-26T08:38:11.160Z,26.25
2017-01-26T08:39:10.317Z,30.35
2017-01-26T08:40:10.314Z,34.48
2017-01-26T08:41:10.339Z,36.65
2017-01-26T08:42:10.339Z,39.56
2017-01-26T08:43:10.332Z,43.19
2017-01-26T08:44:10.314Z,46.87
2017-01-26T08:45:10.322Z,50.18
2017-01-26T08:46:10.338Z,53.77
2017-01-26T08:47:10.349Z,58.13
2017-01-26T08:48:10.330Z,60.99
2017-01-26T08:49:10.321Z,65.81
2017-01-26T08:50:10.309Z,64.67
2017-01-26T08:51:10.321Z,72.33
2017-01-26T08:52:10.331Z,76.39
2017-01-26T08:53:10.326Z,79.12
2017-01-26T08:54:10.371Z,82.86
2017-01-26T08:55:10.335Z,86.41
2017-01-26T08:56:10.329Z,89.68
2017-01-26T08:57:10.332Z,89.61
2017-01-26T08:58:10.325Z,97.26
2017-01-26T08:59:10.334Z,101.5
2017-01-26T09:00:10.333Z,105.19
2017-01-26T09:01:10.329Z,110.24
2017-01-26T09:02:10.326Z,115.27
2017-01-26T09:03:10.329Z,119.22
2017-01-26T09:04:10.338Z,122.65
2017-01-26T09:05:10.317Z,126.85
2017-01-26T09:06:10.334Z,130.82
2017-01-26T09:07:10.317Z,134.98
2017-01-26T09:08:10.337Z,139.19
2017-01-26T09:09:10.326Z,146.78
2017-01-26T09:10:10.345Z,154.81
2017-01-26T09:11:10.342Z,162.45
2017-01-26T09:12:10.336Z,168.8
2017-01-26T09:13:10.334Z,176.18
2017-01-26T09:14:10.332Z,181.23
2017-01-26T09:15:10.340Z,187.73
2017-01-26T09:16:10.436Z,192.81
2017-01-26T09:17:10.334Z,194.64
2017-01-26T09:18:10.336Z,199.71
2017-01-26T09:19:10.334Z,202.82
2017-01-26T09:20:10.332Z,207.63
2017-01-26T09:21:10.332Z,210.48
2017-01-26T09:22:10.352Z,214.33
2017-01-26T09:23:10.368Z,219.04
2017-01-26T09:24:10.343Z,222.32
2017-01-26T09:25:10.352Z,224.94
2017-01-26T09:26:10.355Z,226.92
2017-01-26T09:27:10.348Z,229.51
2017-01-26T09:28:10.346Z,230.89
2017-01-26T09:29:10.336Z,232.77
2017-01-26T09:30:10.346Z,234.39
2017-01-26T09:31:10.338Z,235.13
2017-01-26T09:32:10.336Z,236.11
2017-01-26T09:33:10.340Z,235.87
2017-01-26T09:34:10.328Z,235.88
2017-01-26T09:35:10.342Z,237.01
2017-01-26T09:36:10.351Z,238.92
2017-01-26T09:37:10.342Z,240.08
2017-01-26T09:38:10.361Z,241.76
2017-01-26T09:39:10.358Z,242.48
2017-01-26T09:40:10.347Z,244.84
2017-01-26T09:41:10.343Z,246.97
2017-01-26T09:42:10.350Z,249.11
2017-01-26T09:43:10.342Z,250.31
2017-01-26T09:44:10.341Z,251.5
2017-01-26T09:45:10.345Z,252.2
2017-01-26T09:46:10.375Z,253.65
2017-01-26T09:47:10.344Z,255.52
2017-01-26T09:48:10.346Z,256.68
2017-01-26T09:49:10.346Z,259.25
2017-01-26T09:50:10.363Z,259.96
2017-01-26T09:51:10.345Z,262.02
2017-01-26T09:52:10.354Z,263.77
2017-01-26T09:53:10.346Z,265.83
2017-01-26T09:54:10.354Z,268.86
2017-01-26T09:55:10.348Z,271.43
2017-01-26T09:56:10.350Z,274.85
2017-01-26T09:57:10.361Z,276.48
2017-01-26T09:58:10.363Z,277.82
2017-01-26T09:59:10.357Z,279.86
2017-01-26T10:00:10.351Z,282.71
2017-01-26T10:01:10.364Z,285.26
2017-01-26T10:02:10.360Z,287.34
2017-01-26T10:03:10.356Z,290.31
2017-01-26T10:04:10.354Z,291.8
2017-01-26T10:05:10.355Z,292.73
2017-01-26T10:06:10.372Z,294.65
2017-01-26T10:07:10.360Z,296.44
2017-01-26T10:08:10.374Z,297.33
2017-01-26T10:09:10.367Z,299.37
2017-01-26T10:10:10.360Z,302.05
2017-01-26T10:11:10.366Z,304.61
2017-01-26T10:12:10.361Z,307.33
2017-01-26T10:13:10.361Z,311.03
2017-01-26T10:14:10.357Z,313.33
2017-01-26T10:15:10.371Z,315.85
2017-01-26T10:16:10.376Z,318.53
2017-01-26T10:17:10.350Z,319.4
2017-01-26T10:18:10.370Z,320.51
2017-01-26T10:19:10.356Z,320.98
2017-01-26T10:20:10.368Z,321.86
2017-01-26T10:21:10.362Z,322.54
2017-01-26T10:22:10.387Z,324.27
2017-01-26T10:23:10.365Z,324.94
2017-01-26T10:24:10.362Z,327.25
2017-01-26T10:25:10.363Z,329.09
2017-01-26T10:26:10.389Z,330.3
2017-01-26T10:27:10.368Z,332.94
2017-01-26T10:28:10.391Z,334.71
2017-01-26T10:29:10.386Z,335.84
2017-01-26T10:30:10.360Z,337.42
2017-01-26T10:31:10.375Z,338.26
2017-01-26T10:32:10.381Z,338.21
2017-01-26T10:33:10.373Z,338.86
2017-01-26T10:34:10.411Z,341.06
2017-01-26T10:35:10.387Z,341.95
2017-01-26T10:36:10.427Z,343.68
2017-01-26T10:37:10.385Z,344.63
2017-01-26T10:38:10.387Z,345.54
2017-01-26T10:39:10.703Z,346.92
2017-01-26T10:40:10.392Z,347.07
2017-01-26T10:41:10.466Z,348.65
2017-01-26T10:42:10.389Z,349.76
2017-01-26T10:43:10.369Z,351.53
2017-01-26T10:44:10.381Z,353.95
2017-01-26T10:45:10.380Z,358.36
2017-01-26T10:46:10.374Z,360.82
2017-01-26T10:47:10.389Z,362.53
2017-01-26T10:48:10.374Z,365.62
2017-01-26T10:49:10.375Z,367.87
2017-01-26T10:50:10.398Z,369.36
2017-01-26T10:51:10.385Z,371.6
2017-01-26T10:52:10.375Z,373.74
2017-01-26T10:53:10.382Z,375.48
2017-01-26T10:54:10.393Z,377.7
2017-01-26T10:55:10.414Z,379.19
2017-01-26T10:56:10.392Z,382.48
2017-01-26T10:57:10.386Z,383.36
2017-01-26T10:58:10.384Z,385.78
2017-01-26T10:59:10.383Z,387.77
2017-01-26T11:00:10.390Z,389.74
2017-01-26T11:01:10.396Z,389.67
2017-01-26T11:02:10.391Z,389.68
2017-01-26T11:03:10.407Z,390.31
2017-01-26T11:04:10.399Z,392.29
2017-01-26T11:05:10.399Z,392.77
2017-01-26T11:06:10.464Z,392.77
2017-01-26T11:07:10.389Z,393.67
2017-01-26T11:08:10.390Z,393.83
2017-01-26T11:09:10.400Z,394.06
2017-01-26T11:10:10.393Z,393.81
2017-01-26T11:11:10.407Z,394.7
2017-01-26T11:12:10.388Z,394.92
2017-01-26T11:13:10.391Z,395.94
2017-01-26T11:14:10.398Z,398.09
2017-01-26T11:15:10.400Z,399.6
2017-01-26T11:16:10.428Z,400.07
2017-01-26T11:17:10.391Z,400.69
2017-01-26T11:18:10.400Z,401.33
2017-01-26T11:19:10.457Z,402.21
2017-01-26T11:20:10.422Z,403.48
2017-01-26T11:21:10.400Z,405.46
2017-01-26T11:22:10.414Z,406.73
2017-01-26T11:23:10.405Z,411.02
2017-01-26T11:24:10.404Z,414.04
2017-01-26T11:25:10.401Z,416.81
2017-01-26T11:26:10.409Z,421.04
2017-01-26T11:27:10.409Z,425.01
2017-01-26T11:28:10.417Z,425.06
2017-01-26T11:29:10.410Z,426.27
2017-01-26T11:30:10.412Z,426.71
2017-01-26T11:34:38.067Z,428.88
2017-01-26T11:35:38.055Z,429.09
2017-01-26T11:36:38.029Z,429.32
2017-01-26T11:37:38.017Z,428.86
2017-01-26T11:38:38.054Z,429.23
2017-01-26T11:39:38.070Z,431.13
2017-01-26T11:40:38.078Z,433.03
2017-01-26T11:41:38.080Z,433.63
2017-01-26T11:42:38.073Z,434.26
2017-01-26T11:43:38.066Z,435.52
2017-01-26T11:44:38.103Z,437.86
2017-01-26T11:45:38.033Z,439.75
2017-01-26T11:46:38.031Z,441.04
2017-01-26T11:47:38.047Z,442.05
2017-01-26T11:48:38.037Z,443.33
2017-01-26T11:49:38.033Z,443.07
2017-01-26T11:50:38.025Z,445.38
2017-01-26T11:51:38.052Z,447.26
2017-01-26T11:52:38.038Z,448.51
2017-01-26T11:53:38.052Z,449.09
2017-01-26T11:54:38.057Z,449.56
2017-01-26T11:55:38.046Z,449.13
2017-01-26T11:56:38.054Z,448.42
2017-01-26T11:57:38.043Z,445.43
2017-01-26T11:58:38.046Z,450.31
2017-01-26T11:59:38.043Z,451.94
2017-01-26T12:00:38.045Z,453.85
2017-01-26T12:01:38.043Z,456.1
2017-01-26T12:02:38.061Z,459.06
2017-01-26T12:03:38.037Z,459.43
2017-01-26T12:04:38.056Z,459.36
2017-01-26T12:05:38.067Z,458.31
2017-01-26T12:06:38.039Z,458.32
2017-01-26T12:07:38.044Z,458.95
2017-01-26T12:08:38.057Z,459.3
2017-01-26T12:09:38.040Z,459.31
2017-01-26T12:10:38.055Z,459.69
2017-01-26T12:11:38.041Z,461.99
2017-01-26T12:12:38.048Z,462.21
2017-01-26T12:13:38.048Z,462.5
2017-01-26T12:14:38.047Z,463.6
2017-01-26T12:15:38.054Z,463.3
2017-01-26T12:16:38.061Z,463.91
2017-01-26T12:17:38.052Z,466.77
2017-01-26T12:18:38.048Z,468.43
2017-01-26T12:19:38.058Z,470.84
2017-01-26T12:20:38.049Z,473.32
2017-01-26T12:21:38.051Z,477.1
2017-01-26T12:22:38.056Z,478.72
2017-01-26T12:23:38.055Z,478.43
2017-01-26T12:24:38.056Z,479.3
2017-01-26T12:25:38.050Z,479.27
2017-01-26T12:26:38.064Z,480.25
2017-01-26T12:27:38.058Z,479.65
2017-01-26T12:28:38.069Z,479.02
2017-01-26T12:29:38.048Z,479.68
2017-01-26T12:30:38.059Z,478.61
2017-01-26T12:31:38.127Z,478.43
2017-01-26T12:32:38.059Z,475.66
2017-01-26T12:33:38.063Z,479.2
2017-01-26T12:34:38.083Z,478.77
2017-01-26T12:35:38.077Z,479.04
2017-01-26T12:36:38.073Z,478.35
2017-01-26T12:37:38.082Z,479.36
2017-01-26T12:38:38.061Z,478.73
2017-01-26T12:39:38.075Z,479.13
2017-01-26T12:40:38.084Z,481.27